sensor_id;sensor_type;location;lat;lon;timestamp;P1;durP1;ratioP1;P2;durP2;ratioP2
7745;SDS011;3917;42.748;23.278;2022-08-18T05:37:21;18.65;;;5.43;;
7745;SDS011;3917;42.748;23.278;2022-08-18T05:39:57;12.38;;;4.95;;
7745;SDS011;3917;42.748;23.278;2022-08-18T05:42:33;11.45;;;5.22;;
7745;SDS011;3917;42.748;23.278;2022-08-18T05:45:03;34.42;;;6.50;;
7745;SDS011;3917;42.748;23.278;2022-08-18T05:47:35;55.70;;;6.57;;
7745;SDS011;3917;42.748;23.278;2022-08-18T05:50:04;23.05;;;6.35;;
7745;SDS011;3917;42.748;23.278;2022-08-18T05:52:36;21.05;;;6.63;;
7745;SDS011;3917;42.748;23.278;2022-08-18T05:55:07;20.17;;;5.40;;
7745;SDS011;3917;42.748;23.278;2022-08-18T05:57:58;52.08;;;6.93;;
7745;SDS011;3917;42.748;23.278;2022-08-18T06:00:29;59.85;;;7.55;;
7745;SDS011;3917;42.748;23.278;2022-08-18T06:02:57;48.03;;;7.18;;
7745;SDS011;3917;42.748;23.278;2022-08-18T06:05:34;23.92;;;5.80;;
7745;SDS011;3917;42.748;23.278;2022-08-18T06:08:07;26.52;;;5.88;;
7745;SDS011;3917;42.748;23.278;2022-08-18T06:10:36;20.10;;;5.00;;
7745;SDS011;3917;42.748;23.278;2022-08-18T06:13:06;20.40;;;4.88;;
7745;SDS011;3917;42.748;23.278;2022-08-18T06:15:39;16.50;;;4.55;;
7745;SDS011;3917;42.748;23.278;2022-08-18T06:18:33;17.80;;;4.32;;
7745;SDS011;3917;42.748;23.278;2022-08-18T06:21:17;16.10;;;4.88;;
7745;SDS011;3917;42.748;23.278;2022-08-18T06:26:30;31.58;;;7.57;;
7745;SDS011;3917;42.748;23.278;2022-08-18T06:31:38;20.08;;;4.85;;
7745;SDS011;3917;42.748;23.278;2022-08-18T06:34:14;16.55;;;4.50;;
7745;SDS011;3917;42.748;23.278;2022-08-18T06:36:48;16.48;;;5.45;;
7745;SDS011;3917;42.748;23.278;2022-08-18T06:39:23;14.93;;;4.68;;
7745;SDS011;3917;42.748;23.278;2022-08-18T06:41:56;13.75;;;4.82;;
7745;SDS011;3917;42.748;23.278;2022-08-18T06:44:36;13.70;;;5.15;;
7745;SDS011;3917;42.748;23.278;2022-08-18T06:47:08;8.48;;;5.07;;
7745;SDS011;3917;42.748;23.278;2022-08-18T06:49:42;11.15;;;4.70;;
7745;SDS011;3917;42.748;23.278;2022-08-18T06:52:26;10.05;;;4.95;;
7745;SDS011;3917;42.748;23.278;2022-08-18T06:55:06;6.13;;;4.40;;
7745;SDS011;3917;42.748;23.278;2022-08-18T06:57:52;9.85;;;4.40;;
7745;SDS011;3917;42.748;23.278;2022-08-18T07:00:22;8.10;;;4.70;;
7745;SDS011;3917;42.748;23.278;2022-08-18T07:02:54;9.55;;;4.63;;
7745;SDS011;3917;42.748;23.278;2022-08-18T07:05:26;10.00;;;4.13;;
7745;SDS011;3917;42.748;23.278;2022-08-18T07:08:04;10.73;;;4.03;;
7745;SDS011;3917;42.748;23.278;2022-08-18T07:10:38;6.03;;;3.63;;
7745;SDS011;3917;42.748;23.278;2022-08-18T07:15:53;5.28;;;3.67;;
7745;SDS011;3917;42.748;23.278;2022-08-18T07:18:23;7.90;;;3.95;;
7745;SDS011;3917;42.748;23.278;2022-08-18T07:20:54;7.93;;;4.13;;
7745;SDS011;3917;42.748;23.278;2022-08-18T07:23:24;6.72;;;3.72;;
7745;SDS011;3917;42.748;23.278;2022-08-18T07:26:09;9.82;;;3.33;;
7745;SDS011;3917;42.748;23.278;2022-08-18T07:28:39;6.78;;;3.60;;
7745;SDS011;3917;42.748;23.278;2022-08-18T07:31:13;7.38;;;3.17;;
7745;SDS011;3917;42.748;23.278;2022-08-18T07:33:47;5.18;;;3.65;;
7745;SDS011;3917;42.748;23.278;2022-08-18T07:36:21;6.45;;;3.85;;
7745;SDS011;3917;42.748;23.278;2022-08-18T07:38:52;7.10;;;4.00;;
7745;SDS011;3917;42.748;23.278;2022-08-18T07:41:24;6.25;;;4.13;;
7745;SDS011;3917;42.748;23.278;2022-08-18T07:43:58;9.63;;;3.60;;
7745;SDS011;3917;42.748;23.278;2022-08-18T07:46:35;10.77;;;4.25;;
7745;SDS011;3917;42.748;23.278;2022-08-18T07:49:09;7.28;;;3.58;;
7745;SDS011;3917;42.748;23.278;2022-08-18T07:51:43;7.70;;;3.70;;
7745;SDS011;3917;42.748;23.278;2022-08-18T07:54:16;9.80;;;3.72;;
7745;SDS011;3917;42.748;23.278;2022-08-18T07:56:50;12.57;;;3.88;;
7745;SDS011;3917;42.748;23.278;2022-08-18T07:59:24;9.48;;;3.67;;
7745;SDS011;3917;42.748;23.278;2022-08-18T08:02:00;12.82;;;4.03;;
7745;SDS011;3917;42.748;23.278;2022-08-18T08:04:41;36.85;;;4.70;;
7745;SDS011;3917;42.748;23.278;2022-08-18T08:07:14;30.50;;;3.83;;
7745;SDS011;3917;42.748;23.278;2022-08-18T08:09:50;11.50;;;3.20;;
7745;SDS011;3917;42.748;23.278;2022-08-18T08:12:29;5.85;;;3.20;;
7745;SDS011;3917;42.748;23.278;2022-08-18T08:15:10;20.10;;;3.72;;
7745;SDS011;3917;42.748;23.278;2022-08-18T08:17:44;7.50;;;2.80;;
7745;SDS011;3917;42.748;23.278;2022-08-18T08:20:18;3.92;;;2.90;;
7745;SDS011;3917;42.748;23.278;2022-08-18T08:22:56;4.68;;;2.80;;
7745;SDS011;3917;42.748;23.278;2022-08-18T08:25:31;4.97;;;2.70;;
7745;SDS011;3917;42.748;23.278;2022-08-18T08:28:10;5.03;;;2.92;;
7745;SDS011;3917;42.748;23.278;2022-08-18T08:30:49;9.40;;;3.20;;
7745;SDS011;3917;42.748;23.278;2022-08-18T08:33:27;6.82;;;2.80;;
7745;SDS011;3917;42.748;23.278;2022-08-18T08:36:01;11.27;;;3.00;;
7745;SDS011;3917;42.748;23.278;2022-08-18T08:38:34;4.45;;;2.97;;
7745;SDS011;3917;42.748;23.278;2022-08-18T08:41:11;6.53;;;3.00;;
7745;SDS011;3917;42.748;23.278;2022-08-18T08:43:59;8.38;;;3.47;;
7745;SDS011;3917;42.748;23.278;2022-08-18T08:46:32;7.18;;;3.00;;
7745;SDS011;3917;42.748;23.278;2022-08-18T08:49:10;9.98;;;2.78;;
7745;SDS011;3917;42.748;23.278;2022-08-18T08:51:54;5.20;;;2.90;;
7745;SDS011;3917;42.748;23.278;2022-08-18T08:54:28;10.27;;;2.80;;
7745;SDS011;3917;42.748;23.278;2022-08-18T08:57:12;4.13;;;3.10;;
7745;SDS011;3917;42.748;23.278;2022-08-18T08:59:41;7.30;;;3.22;;
7745;SDS011;3917;42.748;23.278;2022-08-18T09:05:12;3.83;;;2.47;;
7745;SDS011;3917;42.748;23.278;2022-08-18T09:07:45;5.15;;;3.33;;
7745;SDS011;3917;42.748;23.278;2022-08-18T09:10:29;10.57;;;2.80;;
7745;SDS011;3917;42.748;23.278;2022-08-18T09:16:24;5.68;;;2.50;;
7745;SDS011;3917;42.748;23.278;2022-08-18T09:19:18;10.35;;;2.75;;
7745;SDS011;3917;42.748;23.278;2022-08-18T09:21:59;3.10;;;2.50;;
7745;SDS011;3917;42.748;23.278;2022-08-18T09:24:39;5.97;;;2.78;;
7745;SDS011;3917;42.748;23.278;2022-08-18T09:27:11;9.00;;;3.00;;
7745;SDS011;3917;42.748;23.278;2022-08-18T09:29:48;10.98;;;2.72;;
7745;SDS011;3917;42.748;23.278;2022-08-18T09:35:43;10.60;;;2.97;;
7745;SDS011;3917;42.748;23.278;2022-08-18T09:38:22;7.63;;;3.13;;
7745;SDS011;3917;42.748;23.278;2022-08-18T09:41:11;5.32;;;2.60;;
7745;SDS011;3917;42.748;23.278;2022-08-18T09:43:59;7.38;;;2.80;;
7745;SDS011;3917;42.748;23.278;2022-08-18T09:46:49;6.35;;;2.97;;
7745;SDS011;3917;42.748;23.278;2022-08-18T09:55:44;3.03;;;2.63;;
7745;SDS011;3917;42.748;23.278;2022-08-18T09:58:26;3.60;;;2.88;;
7745;SDS011;3917;42.748;23.278;2022-08-18T10:01:35;5.85;;;2.47;;
7745;SDS011;3917;42.748;23.278;2022-08-18T10:07:17;5.80;;;2.80;;
7745;SDS011;3917;42.748;23.278;2022-08-18T10:09:56;9.63;;;2.90;;
7745;SDS011;3917;42.748;23.278;2022-08-18T10:15:30;3.30;;;2.45;;
7745;SDS011;3917;42.748;23.278;2022-08-18T10:18:12;4.68;;;2.70;;
7745;SDS011;3917;42.748;23.278;2022-08-18T10:20:59;5.07;;;2.17;;
7745;SDS011;3917;42.748;23.278;2022-08-18T10:23:55;2.15;;;1.90;;
7745;SDS011;3917;42.748;23.278;2022-08-18T10:38:37;3.78;;;2.30;;
7745;SDS011;3917;42.748;23.278;2022-08-18T10:41:11;5.72;;;2.80;;
7745;SDS011;3917;42.748;23.278;2022-08-18T10:43:46;3.75;;;2.40;;
7745;SDS011;3917;42.748;23.278;2022-08-18T10:46:23;5.25;;;2.53;;
7745;SDS011;3917;42.748;23.278;2022-08-18T10:48:59;8.32;;;2.80;;
7745;SDS011;3917;42.748;23.278;2022-08-18T10:51:45;3.97;;;2.72;;
7745;SDS011;3917;42.748;23.278;2022-08-18T10:54:32;8.05;;;3.00;;
7745;SDS011;3917;42.748;23.278;2022-08-18T10:57:11;8.98;;;2.97;;
7745;SDS011;3917;42.748;23.278;2022-08-18T10:59:46;9.73;;;3.05;;
7745;SDS011;3917;42.748;23.278;2022-08-18T11:02:28;4.55;;;2.72;;
7745;SDS011;3917;42.748;23.278;2022-08-18T11:05:11;10.98;;;3.22;;
7745;SDS011;3917;42.748;23.278;2022-08-18T11:07:39;5.45;;;2.60;;
7745;SDS011;3917;42.748;23.278;2022-08-18T11:10:15;8.55;;;2.70;;
7745;SDS011;3917;42.748;23.278;2022-08-18T11:12:52;5.85;;;2.90;;
7745;SDS011;3917;42.748;23.278;2022-08-18T11:15:29;3.47;;;2.70;;
7745;SDS011;3917;42.748;23.278;2022-08-18T11:18:09;5.85;;;2.53;;
7745;SDS011;3917;42.748;23.278;2022-08-18T11:20:53;4.93;;;2.65;;
7745;SDS011;3917;42.748;23.278;2022-08-18T11:23:22;3.55;;;2.88;;
7745;SDS011;3917;42.748;23.278;2022-08-18T11:25:49;5.75;;;2.75;;
7745;SDS011;3917;42.748;23.278;2022-08-18T11:28:18;3.60;;;2.38;;
7745;SDS011;3917;42.748;23.278;2022-08-18T11:30:48;4.93;;;2.58;;
7745;SDS011;3917;42.748;23.278;2022-08-18T11:33:18;4.90;;;2.60;;
7745;SDS011;3917;42.748;23.278;2022-08-18T11:35:47;4.07;;;2.63;;
7745;SDS011;3917;42.748;23.278;2022-08-18T11:38:17;4.03;;;2.90;;
7745;SDS011;3917;42.748;23.278;2022-08-18T11:40:44;3.67;;;2.83;;
7745;SDS011;3917;42.748;23.278;2022-08-18T11:43:27;6.18;;;2.90;;
7745;SDS011;3917;42.748;23.278;2022-08-18T11:46:01;3.40;;;2.70;;
7745;SDS011;3917;42.748;23.278;2022-08-18T11:48:41;3.83;;;2.63;;
7745;SDS011;3917;42.748;23.278;2022-08-18T11:51:17;3.45;;;2.60;;
7745;SDS011;3917;42.748;23.278;2022-08-18T11:53:52;3.67;;;3.00;;
7745;SDS011;3917;42.748;23.278;2022-08-18T11:56:22;2.78;;;2.60;;
7745;SDS011;3917;42.748;23.278;2022-08-18T11:58:56;3.90;;;3.13;;
7745;SDS011;3917;42.748;23.278;2022-08-18T12:01:31;4.43;;;2.70;;
7745;SDS011;3917;42.748;23.278;2022-08-18T12:04:09;6.50;;;2.97;;
7745;SDS011;3917;42.748;23.278;2022-08-18T12:06:59;4.25;;;2.95;;
7745;SDS011;3917;42.748;23.278;2022-08-18T12:09:31;7.97;;;2.97;;
7745;SDS011;3917;42.748;23.278;2022-08-18T12:12:02;2.83;;;2.65;;
7745;SDS011;3917;42.748;23.278;2022-08-18T12:14:52;9.23;;;3.25;;
7745;SDS011;3917;42.748;23.278;2022-08-18T12:17:21;4.47;;;2.70;;
7745;SDS011;3917;42.748;23.278;2022-08-18T12:19:49;4.78;;;2.80;;
7745;SDS011;3917;42.748;23.278;2022-08-18T12:22:27;6.50;;;3.03;;
7745;SDS011;3917;42.748;23.278;2022-08-18T12:25:04;4.15;;;2.90;;
7745;SDS011;3917;42.748;23.278;2022-08-18T12:32:46;5.07;;;2.80;;
7745;SDS011;3917;42.748;23.278;2022-08-18T12:35:13;3.60;;;3.20;;
7745;SDS011;3917;42.748;23.278;2022-08-18T12:37:43;3.47;;;2.90;;
7745;SDS011;3917;42.748;23.278;2022-08-18T12:42:54;4.40;;;2.90;;
7745;SDS011;3917;42.748;23.278;2022-08-18T12:45:22;6.00;;;2.78;;
7745;SDS011;3917;42.748;23.278;2022-08-18T12:47:55;5.30;;;2.70;;
7745;SDS011;3917;42.748;23.278;2022-08-18T12:50:23;4.80;;;2.90;;
7745;SDS011;3917;42.748;23.278;2022-08-18T12:52:51;5.47;;;3.15;;
7745;SDS011;3917;42.748;23.278;2022-08-18T12:55:18;3.75;;;2.72;;
7745;SDS011;3917;42.748;23.278;2022-08-18T12:57:45;3.15;;;2.95;;
7745;SDS011;3917;42.748;23.278;2022-08-18T13:00:29;5.18;;;2.95;;
7745;SDS011;3917;42.748;23.278;2022-08-18T13:02:56;4.20;;;2.92;;
7745;SDS011;3917;42.748;23.278;2022-08-18T13:05:26;3.85;;;3.28;;
7745;SDS011;3917;42.748;23.278;2022-08-18T13:07:53;6.72;;;3.28;;
7745;SDS011;3917;42.748;23.278;2022-08-18T13:10:23;5.30;;;3.00;;
7745;SDS011;3917;42.748;23.278;2022-08-18T13:12:50;6.75;;;3.10;;
7745;SDS011;3917;42.748;23.278;2022-08-18T13:15:17;5.55;;;3.15;;
7745;SDS011;3917;42.748;23.278;2022-08-18T13:17:45;8.82;;;3.15;;
7745;SDS011;3917;42.748;23.278;2022-08-18T13:20:15;5.95;;;3.17;;
7745;SDS011;3917;42.748;23.278;2022-08-18T13:22:45;5.63;;;2.83;;
7745;SDS011;3917;42.748;23.278;2022-08-18T13:25:12;7.22;;;3.35;;
7745;SDS011;3917;42.748;23.278;2022-08-18T13:27:42;8.43;;;3.05;;
7745;SDS011;3917;42.748;23.278;2022-08-18T13:30:10;5.32;;;3.15;;
7745;SDS011;3917;42.748;23.278;2022-08-18T13:32:38;16.55;;;4.25;;
7745;SDS011;3917;42.748;23.278;2022-08-18T13:35:08;6.88;;;3.10;;
7745;SDS011;3917;42.748;23.278;2022-08-18T13:37:36;3.40;;;3.10;;
7745;SDS011;3917;42.748;23.278;2022-08-18T13:40:03;7.30;;;3.05;;
7745;SDS011;3917;42.748;23.278;2022-08-18T13:42:39;3.60;;;3.13;;
7745;SDS011;3917;42.748;23.278;2022-08-18T13:45:09;8.13;;;3.20;;
7745;SDS011;3917;42.748;23.278;2022-08-18T13:47:43;8.07;;;3.55;;
7745;SDS011;3917;42.748;23.278;2022-08-18T13:50:14;6.25;;;3.17;;
7745;SDS011;3917;42.748;23.278;2022-08-18T13:52:42;6.45;;;2.88;;
7745;SDS011;3917;42.748;23.278;2022-08-18T13:55:10;3.53;;;2.80;;
7745;SDS011;3917;42.748;23.278;2022-08-18T13:57:39;10.93;;;3.30;;
7745;SDS011;3917;42.748;23.278;2022-08-18T14:00:13;4.88;;;2.90;;
7745;SDS011;3917;42.748;23.278;2022-08-18T14:02:46;4.40;;;2.90;;
7745;SDS011;3917;42.748;23.278;2022-08-18T14:05:18;4.93;;;3.15;;
7745;SDS011;3917;42.748;23.278;2022-08-18T14:07:45;3.47;;;2.80;;
7745;SDS011;3917;42.748;23.278;2022-08-18T14:10:12;7.93;;;3.20;;
7745;SDS011;3917;42.748;23.278;2022-08-18T14:12:40;7.13;;;2.85;;
7745;SDS011;3917;42.748;23.278;2022-08-18T14:15:09;3.03;;;2.80;;
7745;SDS011;3917;42.748;23.278;2022-08-18T14:17:37;5.97;;;3.20;;
7745;SDS011;3917;42.748;23.278;2022-08-18T14:20:05;4.25;;;3.10;;
7745;SDS011;3917;42.748;23.278;2022-08-18T14:26:34;14.52;;;3.33;;
7745;SDS011;3917;42.748;23.278;2022-08-18T14:31:56;3.42;;;3.22;;
7745;SDS011;3917;42.748;23.278;2022-08-18T14:37:25;9.52;;;3.38;;
7745;SDS011;3917;42.748;23.278;2022-08-18T14:39:52;3.42;;;3.17;;
7745;SDS011;3917;42.748;23.278;2022-08-18T14:42:26;8.50;;;3.20;;
7745;SDS011;3917;42.748;23.278;2022-08-18T14:45:02;4.23;;;3.80;;
7745;SDS011;3917;42.748;23.278;2022-08-18T14:47:33;3.30;;;3.10;;
7745;SDS011;3917;42.748;23.278;2022-08-18T14:53:39;7.25;;;3.45;;
7745;SDS011;3917;42.748;23.278;2022-08-18T14:56:07;22.67;;;3.60;;
7745;SDS011;3917;42.748;23.278;2022-08-18T14:58:47;8.40;;;3.60;;
7745;SDS011;3917;42.748;23.278;2022-08-18T15:01:14;8.30;;;3.33;;
7745;SDS011;3917;42.748;23.278;2022-08-18T15:03:42;4.03;;;3.70;;
7745;SDS011;3917;42.748;23.278;2022-08-18T15:06:17;7.68;;;3.75;;
7745;SDS011;3917;42.748;23.278;2022-08-18T15:08:47;11.60;;;3.80;;
7745;SDS011;3917;42.748;23.278;2022-08-18T15:11:18;4.90;;;3.42;;
7745;SDS011;3917;42.748;23.278;2022-08-18T15:13:45;6.10;;;3.30;;
7745;SDS011;3917;42.748;23.278;2022-08-18T15:16:14;4.97;;;3.67;;
7745;SDS011;3917;42.748;23.278;2022-08-18T15:18:42;6.07;;;3.55;;
7745;SDS011;3917;42.748;23.278;2022-08-18T15:21:11;6.32;;;3.70;;
7745;SDS011;3917;42.748;23.278;2022-08-18T15:23:55;5.50;;;3.75;;
7745;SDS011;3917;42.748;23.278;2022-08-18T15:29:09;3.70;;;3.40;;
7745;SDS011;3917;42.748;23.278;2022-08-18T15:31:37;10.25;;;4.00;;
7745;SDS011;3917;42.748;23.278;2022-08-18T15:34:06;4.80;;;3.60;;
7745;SDS011;3917;42.748;23.278;2022-08-18T15:36:45;4.65;;;3.15;;
7745;SDS011;3917;42.748;23.278;2022-08-18T15:39:12;8.52;;;3.50;;
7745;SDS011;3917;42.748;23.278;2022-08-18T15:41:41;4.20;;;3.10;;
7745;SDS011;3917;42.748;23.278;2022-08-18T15:44:15;9.88;;;3.40;;
7745;SDS011;3917;42.748;23.278;2022-08-18T15:46:43;5.57;;;3.45;;
7745;SDS011;3917;42.748;23.278;2022-08-18T15:49:12;6.18;;;3.60;;
7745;SDS011;3917;42.748;23.278;2022-08-18T15:51:40;5.90;;;3.17;;
7745;SDS011;3917;42.748;23.278;2022-08-18T15:54:08;6.82;;;3.80;;
7745;SDS011;3917;42.748;23.278;2022-08-18T15:56:36;4.63;;;3.42;;
7745;SDS011;3917;42.748;23.278;2022-08-18T15:59:03;7.22;;;3.58;;
7745;SDS011;3917;42.748;23.278;2022-08-18T16:01:33;5.30;;;3.38;;
7745;SDS011;3917;42.748;23.278;2022-08-18T16:04:01;5.72;;;3.67;;
7745;SDS011;3917;42.748;23.278;2022-08-18T16:06:29;8.07;;;3.92;;
7745;SDS011;3917;42.748;23.278;2022-08-18T16:08:56;9.00;;;4.53;;
7745;SDS011;3917;42.748;23.278;2022-08-18T16:11:23;7.38;;;3.80;;
7745;SDS011;3917;42.748;23.278;2022-08-18T16:13:49;5.95;;;3.50;;
7745;SDS011;3917;42.748;23.278;2022-08-18T16:16:18;6.35;;;4.32;;
7745;SDS011;3917;42.748;23.278;2022-08-18T16:18:48;13.23;;;5.80;;
7745;SDS011;3917;42.748;23.278;2022-08-18T16:21:17;7.65;;;5.00;;
7745;SDS011;3917;42.748;23.278;2022-08-18T16:23:47;8.13;;;4.07;;
7745;SDS011;3917;42.748;23.278;2022-08-18T16:26:16;3.65;;;3.42;;
7745;SDS011;3917;42.748;23.278;2022-08-18T16:28:45;5.95;;;3.63;;
7745;SDS011;3917;42.748;23.278;2022-08-18T16:31:15;8.55;;;3.50;;
7745;SDS011;3917;42.748;23.278;2022-08-18T16:33:43;8.98;;;3.80;;
7745;SDS011;3917;42.748;23.278;2022-08-18T16:36:12;6.15;;;4.70;;
7745;SDS011;3917;42.748;23.278;2022-08-18T16:38:40;6.28;;;4.05;;
7745;SDS011;3917;42.748;23.278;2022-08-18T16:41:09;5.78;;;3.92;;
7745;SDS011;3917;42.748;23.278;2022-08-18T16:43:39;8.77;;;4.03;;
7745;SDS011;3917;42.748;23.278;2022-08-18T16:46:09;7.43;;;4.03;;
7745;SDS011;3917;42.748;23.278;2022-08-18T16:48:37;4.25;;;3.78;;
7745;SDS011;3917;42.748;23.278;2022-08-18T16:51:03;8.68;;;4.15;;
7745;SDS011;3917;42.748;23.278;2022-08-18T16:53:32;8.82;;;4.13;;
7745;SDS011;3917;42.748;23.278;2022-08-18T16:55:59;4.63;;;3.70;;
7745;SDS011;3917;42.748;23.278;2022-08-18T16:58:26;4.70;;;3.63;;
7745;SDS011;3917;42.748;23.278;2022-08-18T17:01:10;3.73;;;3.43;;
7745;SDS011;3917;42.748;23.278;2022-08-18T17:03:54;4.45;;;4.05;;
7745;SDS011;3917;42.748;23.278;2022-08-18T17:06:35;4.15;;;3.45;;
7745;SDS011;3917;42.748;23.278;2022-08-18T17:09:04;4.40;;;3.38;;
7745;SDS011;3917;42.748;23.278;2022-08-18T17:11:34;3.88;;;3.38;;
7745;SDS011;3917;42.748;23.278;2022-08-18T17:14:04;5.72;;;3.58;;
7745;SDS011;3917;42.748;23.278;2022-08-18T17:16:32;4.55;;;3.90;;
7745;SDS011;3917;42.748;23.278;2022-08-18T17:19:01;5.85;;;4.15;;
7745;SDS011;3917;42.748;23.278;2022-08-18T17:21:29;8.45;;;3.88;;
7745;SDS011;3917;42.748;23.278;2022-08-18T17:23:57;6.72;;;3.92;;
7745;SDS011;3917;42.748;23.278;2022-08-18T17:26:31;4.95;;;3.63;;
7745;SDS011;3917;42.748;23.278;2022-08-18T17:29:06;9.38;;;4.28;;
7745;SDS011;3917;42.748;23.278;2022-08-18T17:31:36;10.98;;;6.00;;
7745;SDS011;3917;42.748;23.278;2022-08-18T17:34:10;14.98;;;6.65;;
7745;SDS011;3917;42.748;23.278;2022-08-18T17:36:42;6.35;;;4.47;;
7745;SDS011;3917;42.748;23.278;2022-08-18T17:41:45;8.80;;;3.75;;
7745;SDS011;3917;42.748;23.278;2022-08-18T17:44:32;9.13;;;4.70;;
7745;SDS011;3917;42.748;23.278;2022-08-18T17:47:02;3.63;;;3.33;;
7745;SDS011;3917;42.748;23.278;2022-08-18T17:49:35;11.85;;;3.80;;
7745;SDS011;3917;42.748;23.278;2022-08-18T17:52:24;6.95;;;3.70;;
7745;SDS011;3917;42.748;23.278;2022-08-18T17:54:55;7.13;;;4.00;;
7745;SDS011;3917;42.748;23.278;2022-08-18T17:57:35;7.65;;;4.22;;
7745;SDS011;3917;42.748;23.278;2022-08-18T18:00:07;6.68;;;3.70;;
7745;SDS011;3917;42.748;23.278;2022-08-18T18:02:37;3.95;;;3.38;;
7745;SDS011;3917;42.748;23.278;2022-08-18T18:05:07;8.00;;;4.40;;
7745;SDS011;3917;42.748;23.278;2022-08-18T18:07:37;7.40;;;4.38;;
7745;SDS011;3917;42.748;23.278;2022-08-18T18:10:06;7.53;;;4.88;;
7745;SDS011;3917;42.748;23.278;2022-08-18T18:12:37;15.65;;;5.88;;
7745;SDS011;3917;42.748;23.278;2022-08-18T18:15:05;7.00;;;4.68;;
7745;SDS011;3917;42.748;23.278;2022-08-18T18:17:34;10.20;;;7.57;;
7745;SDS011;3917;42.748;23.278;2022-08-18T18:20:13;8.23;;;5.30;;
7745;SDS011;3917;42.748;23.278;2022-08-18T18:22:49;7.68;;;4.68;;
7745;SDS011;3917;42.748;23.278;2022-08-18T18:25:28;10.13;;;5.13;;
7745;SDS011;3917;42.748;23.278;2022-08-18T18:28:00;6.93;;;5.00;;
7745;SDS011;3917;42.748;23.278;2022-08-18T18:30:27;10.95;;;4.88;;
7745;SDS011;3917;42.748;23.278;2022-08-18T18:32:56;6.88;;;4.85;;
7745;SDS011;3917;42.748;23.278;2022-08-18T18:35:26;9.57;;;5.07;;
7745;SDS011;3917;42.748;23.278;2022-08-18T18:37:56;10.95;;;5.50;;
7745;SDS011;3917;42.748;23.278;2022-08-18T18:40:27;12.25;;;4.78;;
7745;SDS011;3917;42.748;23.278;2022-08-18T18:42:57;7.47;;;4.28;;
7745;SDS011;3917;42.748;23.278;2022-08-18T18:45:55;8.93;;;4.80;;
7745;SDS011;3917;42.748;23.278;2022-08-18T18:48:29;15.13;;;5.00;;
7745;SDS011;3917;42.748;23.278;2022-08-18T18:51:15;8.90;;;5.40;;
7745;SDS011;3917;42.748;23.278;2022-08-18T18:53:54;10.60;;;5.18;;
7745;SDS011;3917;42.748;23.278;2022-08-18T18:56:28;7.28;;;4.00;;
7745;SDS011;3917;42.748;23.278;2022-08-18T18:59:04;9.85;;;4.60;;
7745;SDS011;3917;42.748;23.278;2022-08-18T19:01:40;7.80;;;4.18;;
7745;SDS011;3917;42.748;23.278;2022-08-18T19:04:13;6.95;;;4.35;;
7745;SDS011;3917;42.748;23.278;2022-08-18T19:06:45;10.32;;;4.18;;
7745;SDS011;3917;42.748;23.278;2022-08-18T19:09:17;8.60;;;4.05;;
7745;SDS011;3917;42.748;23.278;2022-08-18T19:11:54;7.80;;;4.35;;
7745;SDS011;3917;42.748;23.278;2022-08-18T19:14:32;7.40;;;4.63;;
7745;SDS011;3917;42.748;23.278;2022-08-18T19:17:03;6.93;;;4.50;;
7745;SDS011;3917;42.748;23.278;2022-08-18T19:19:43;7.38;;;4.78;;
7745;SDS011;3917;42.748;23.278;2022-08-18T19:22:15;5.57;;;5.07;;
7745;SDS011;3917;42.748;23.278;2022-08-18T19:24:52;7.75;;;5.03;;
7745;SDS011;3917;42.748;23.278;2022-08-18T19:27:28;6.00;;;4.93;;
7745;SDS011;3917;42.748;23.278;2022-08-18T19:30:04;7.50;;;5.47;;
7745;SDS011;3917;42.748;23.278;2022-08-18T19:32:34;10.60;;;6.07;;
7745;SDS011;3917;42.748;23.278;2022-08-18T19:35:07;10.30;;;5.90;;
7745;SDS011;3917;42.748;23.278;2022-08-18T19:37:46;8.07;;;5.07;;
7745;SDS011;3917;42.748;23.278;2022-08-18T19:40:23;6.30;;;5.15;;
7745;SDS011;3917;42.748;23.278;2022-08-18T19:42:54;5.13;;;4.57;;
7745;SDS011;3917;42.748;23.278;2022-08-18T19:45:29;8.57;;;4.05;;
7745;SDS011;3917;42.748;23.278;2022-08-18T19:48:02;4.38;;;3.97;;
7745;SDS011;3917;42.748;23.278;2022-08-18T19:50:36;4.03;;;3.67;;
7745;SDS011;3917;42.748;23.278;2022-08-18T19:53:18;3.88;;;3.58;;
7745;SDS011;3917;42.748;23.278;2022-08-18T19:56:12;5.65;;;4.10;;
7745;SDS011;3917;42.748;23.278;2022-08-18T19:58:53;11.05;;;4.03;;
7745;SDS011;3917;42.748;23.278;2022-08-18T20:01:35;6.07;;;3.63;;
7745;SDS011;3917;42.748;23.278;2022-08-18T20:04:16;5.03;;;3.78;;
7745;SDS011;3917;42.748;23.278;2022-08-18T20:06:58;7.80;;;3.63;;
7745;SDS011;3917;42.748;23.278;2022-08-18T20:09:58;4.75;;;3.53;;
7745;SDS011;3917;42.748;23.278;2022-08-18T20:12:40;3.00;;;2.65;;
7745;SDS011;3917;42.748;23.278;2022-08-18T20:15:22;5.90;;;3.63;;
7745;SDS011;3917;42.748;23.278;2022-08-18T20:23:57;11.95;;;4.05;;
7745;SDS011;3917;42.748;23.278;2022-08-18T20:26:39;8.85;;;4.80;;
7745;SDS011;3917;42.748;23.278;2022-08-18T20:29:09;5.90;;;4.30;;
7745;SDS011;3917;42.748;23.278;2022-08-18T20:31:43;9.43;;;3.97;;
7745;SDS011;3917;42.748;23.278;2022-08-18T20:34:18;7.32;;;3.97;;
7745;SDS011;3917;42.748;23.278;2022-08-18T20:36:47;10.77;;;4.22;;
7745;SDS011;3917;42.748;23.278;2022-08-18T20:39:29;4.00;;;3.58;;
7745;SDS011;3917;42.748;23.278;2022-08-18T20:42:00;9.68;;;3.75;;
7745;SDS011;3917;42.748;23.278;2022-08-18T20:44:46;4.47;;;3.17;;
7745;SDS011;3917;42.748;23.278;2022-08-18T20:47:36;7.22;;;3.47;;
7745;SDS011;3917;42.748;23.278;2022-08-18T20:53:15;3.97;;;3.50;;
7745;SDS011;3917;42.748;23.278;2022-08-18T20:55:54;4.65;;;3.50;;
7745;SDS011;3917;42.748;23.278;2022-08-18T20:58:33;4.22;;;3.47;;
7745;SDS011;3917;42.748;23.278;2022-08-18T21:01:03;5.13;;;3.60;;
7745;SDS011;3917;42.748;23.278;2022-08-18T21:03:34;4.35;;;3.42;;
7745;SDS011;3917;42.748;23.278;2022-08-18T21:06:02;4.43;;;3.50;;
7745;SDS011;3917;42.748;23.278;2022-08-18T21:08:31;4.13;;;3.55;;
7745;SDS011;3917;42.748;23.278;2022-08-18T21:11:00;22.15;;;4.20;;
7745;SDS011;3917;42.748;23.278;2022-08-18T21:13:36;4.20;;;3.80;;
7745;SDS011;3917;42.748;23.278;2022-08-18T21:16:30;5.88;;;2.90;;
7745;SDS011;3917;42.748;23.278;2022-08-18T21:19:02;5.55;;;3.80;;
7745;SDS011;3917;42.748;23.278;2022-08-18T21:21:33;4.15;;;3.45;;
7745;SDS011;3917;42.748;23.278;2022-08-18T21:24:05;3.90;;;3.60;;
7745;SDS011;3917;42.748;23.278;2022-08-18T21:26:44;7.13;;;3.75;;
7745;SDS011;3917;42.748;23.278;2022-08-18T21:29:12;3.95;;;3.60;;
7745;SDS011;3917;42.748;23.278;2022-08-18T21:31:41;3.60;;;3.30;;
7745;SDS011;3917;42.748;23.278;2022-08-18T21:34:11;8.80;;;3.90;;
7745;SDS011;3917;42.748;23.278;2022-08-18T21:36:47;7.68;;;3.95;;
7745;SDS011;3917;42.748;23.278;2022-08-18T21:39:17;4.40;;;3.63;;
7745;SDS011;3917;42.748;23.278;2022-08-18T21:41:46;5.50;;;3.70;;
7745;SDS011;3917;42.748;23.278;2022-08-18T21:44:23;8.95;;;3.75;;
7745;SDS011;3917;42.748;23.278;2022-08-18T21:49:13;3.78;;;3.33;;
7745;SDS011;3917;42.748;23.278;2022-08-18T21:50:48;5.55;;;3.25;;
7745;SDS011;3917;42.748;23.278;2022-08-18T21:53:21;6.30;;;3.83;;
7745;SDS011;3917;42.748;23.278;2022-08-18T21:55:56;5.50;;;3.55;;
7745;SDS011;3917;42.748;23.278;2022-08-18T21:58:27;4.15;;;3.72;;
7745;SDS011;3917;42.748;23.278;2022-08-18T22:01:10;4.55;;;3.85;;
7745;SDS011;3917;42.748;23.278;2022-08-18T22:03:54;4.93;;;3.60;;
7745;SDS011;3917;42.748;23.278;2022-08-18T22:06:26;4.25;;;3.50;;
7745;SDS011;3917;42.748;23.278;2022-08-18T22:09:03;6.10;;;3.50;;
7745;SDS011;3917;42.748;23.278;2022-08-18T22:15:04;7.25;;;3.67;;
7745;SDS011;3917;42.748;23.278;2022-08-18T22:17:39;6.55;;;3.80;;
7745;SDS011;3917;42.748;23.278;2022-08-18T22:23:05;4.30;;;3.30;;
7745;SDS011;3917;42.748;23.278;2022-08-18T22:40:22;6.68;;;3.40;;
7745;SDS011;3917;42.748;23.278;2022-08-18T22:47:27;5.55;;;4.15;;
7745;SDS011;3917;42.748;23.278;2022-08-18T22:50:25;6.50;;;4.13;;
7745;SDS011;3917;42.748;23.278;2022-08-18T22:56:40;6.13;;;4.07;;
7745;SDS011;3917;42.748;23.278;2022-08-18T22:59:26;6.95;;;4.18;;
7745;SDS011;3917;42.748;23.278;2022-08-18T23:02:14;7.63;;;4.22;;
7745;SDS011;3917;42.748;23.278;2022-08-18T23:05:08;8.30;;;4.47;;